createdAt,value
2023-08-18T00:01:51.517Z,25.80
2023-08-18T00:04:18.416Z,27.30
2023-08-18T00:06:45.372Z,28.85
2023-08-18T00:09:12.523Z,27.77
2023-08-18T00:11:39.513Z,26.10
2023-08-18T00:14:06.326Z,27.02
2023-08-18T00:16:33.252Z,26.55
2023-08-18T00:19:01.640Z,28.67
2023-08-18T00:21:28.765Z,29.10
2023-08-18T00:23:55.627Z,27.77
2023-08-18T00:26:22.501Z,27.73
2023-08-18T00:28:49.464Z,27.77
2023-08-18T00:31:16.464Z,29.20
2023-08-18T00:33:43.575Z,29.45
2023-08-18T00:36:11.863Z,25.10
2023-08-18T00:38:38.777Z,27.23
2023-08-18T00:41:05.580Z,29.75
2023-08-18T00:43:32.520Z,28.65
2023-08-18T00:45:59.738Z,29.05
2023-08-18T00:48:27.584Z,28.17
2023-08-18T00:50:55.068Z,28.10
2023-08-18T00:53:23.787Z,28.73
2023-08-18T00:55:50.993Z,30.55
2023-08-18T00:58:18.379Z,29.20
2023-08-18T01:00:46.396Z,28.67
2023-08-18T01:03:13.426Z,29.83
2023-08-18T01:05:40.500Z,29.15
2023-08-18T01:08:07.411Z,30.40
2023-08-18T01:10:43.641Z,30.23
2023-08-18T01:13:15.676Z,30.27
2023-08-18T01:15:46.156Z,28.90
2023-08-18T01:18:14.415Z,28.33
2023-08-18T01:20:41.759Z,28.67
2023-08-18T01:23:10.133Z,29.40
2023-08-18T01:25:37.203Z,29.65
2023-08-18T01:28:05.016Z,30.33
2023-08-18T01:30:36.530Z,31.00
2023-08-18T01:33:13.913Z,28.45
2023-08-18T01:35:44.099Z,33.15
2023-08-18T01:38:13.294Z,32.30
2023-08-18T01:40:41.573Z,32.28
2023-08-18T01:43:08.399Z,32.60
2023-08-18T01:45:35.861Z,34.13
2023-08-18T01:48:03.448Z,34.95
2023-08-18T01:50:30.392Z,33.78
2023-08-18T01:52:57.245Z,33.75
2023-08-18T01:55:25.525Z,35.83
2023-08-18T01:57:52.405Z,33.75
2023-08-18T02:00:21.061Z,33.28
2023-08-18T02:02:48.619Z,33.10
2023-08-18T02:05:16.049Z,37.67
2023-08-18T02:07:42.847Z,36.65
2023-08-18T02:10:10.312Z,35.33
2023-08-18T02:12:38.956Z,35.38
2023-08-18T02:15:07.104Z,35.55
2023-08-18T02:17:34.231Z,32.90
2023-08-18T02:20:01.318Z,33.40
2023-08-18T02:22:28.200Z,34.70
2023-08-18T02:24:55.439Z,34.22
2023-08-18T02:27:22.309Z,37.85
2023-08-18T02:29:51.311Z,34.80
2023-08-18T02:32:19.730Z,32.90
2023-08-18T02:34:47.220Z,33.45
2023-08-18T02:37:14.262Z,32.35
2023-08-18T02:39:41.182Z,35.28
2023-08-18T02:42:08.225Z,36.65
2023-08-18T02:44:35.211Z,34.70
2023-08-18T02:47:04.201Z,36.25
2023-08-18T02:49:31.208Z,33.90
2023-08-18T02:51:58.128Z,34.60
2023-08-18T02:54:25.059Z,35.13
2023-08-18T02:56:51.976Z,36.22
2023-08-18T02:59:19.180Z,34.75
2023-08-18T03:01:46.425Z,34.20
2023-08-18T03:04:15.697Z,33.95
2023-08-18T03:06:42.966Z,34.45
2023-08-18T03:09:10.220Z,34.80
2023-08-18T03:11:37.141Z,39.85
2023-08-18T03:14:06.899Z,36.47
2023-08-18T03:16:33.769Z,35.50
2023-08-18T03:19:00.751Z,36.90
2023-08-18T03:21:29.182Z,38.72
2023-08-18T03:23:56.112Z,39.25
2023-08-18T03:26:23.092Z,37.85
2023-08-18T03:28:49.983Z,38.60
2023-08-18T03:31:16.892Z,39.03
2023-08-18T03:33:43.793Z,36.30
2023-08-18T03:36:10.807Z,38.00
2023-08-18T03:38:39.078Z,36.05
2023-08-18T03:41:07.622Z,36.03
2023-08-18T03:43:35.158Z,37.70
2023-08-18T03:46:04.662Z,38.20
2023-08-18T03:48:31.557Z,36.47
2023-08-18T03:50:58.579Z,37.17
2023-08-18T03:53:25.557Z,38.53
2023-08-18T03:55:57.083Z,41.47
2023-08-18T03:58:23.955Z,39.55
2023-08-18T04:00:50.885Z,39.58
2023-08-18T04:03:17.881Z,39.05
2023-08-18T04:05:48.077Z,42.05
2023-08-18T04:08:17.098Z,36.97
2023-08-18T04:10:44.119Z,41.85
2023-08-18T04:13:12.456Z,40.90
2023-08-18T04:15:39.483Z,41.20
2023-08-18T04:18:06.469Z,45.83
2023-08-18T04:20:33.342Z,40.45
2023-08-18T04:23:00.237Z,42.35
2023-08-18T04:25:27.143Z,41.38
2023-08-18T04:27:53.991Z,42.60
2023-08-18T04:30:22.313Z,47.00
2023-08-18T04:32:49.512Z,43.50
2023-08-18T04:35:16.470Z,43.13
2023-08-18T04:37:43.374Z,47.75
2023-08-18T04:40:10.753Z,43.75
2023-08-18T04:42:38.503Z,45.03
2023-08-18T04:45:06.524Z,46.08
2023-08-18T04:47:34.803Z,45.80
2023-08-18T04:50:01.657Z,43.45
2023-08-18T04:52:28.959Z,45.13
2023-08-18T04:54:55.995Z,45.90
2023-08-18T04:57:22.796Z,45.92
2023-08-18T04:59:49.783Z,46.42
2023-08-18T05:02:16.793Z,46.83
2023-08-18T05:04:45.199Z,43.55
2023-08-18T05:07:12.051Z,45.97
2023-08-18T05:09:39.110Z,48.75
2023-08-18T05:12:09.107Z,48.22
2023-08-18T05:14:36.371Z,48.83
2023-08-18T05:17:03.283Z,48.55
2023-08-18T05:19:30.159Z,48.28
2023-08-18T05:21:59.128Z,49.97
2023-08-18T05:24:25.978Z,48.13
2023-08-18T05:26:53.152Z,45.25
2023-08-18T05:29:20.029Z,46.33
2023-08-18T05:31:47.194Z,49.70
2023-08-18T05:34:14.391Z,50.33
2023-08-18T05:36:41.365Z,53.08
2023-08-18T05:39:09.751Z,51.28
2023-08-18T05:41:36.734Z,51.05
2023-08-18T05:44:04.051Z,53.80
2023-08-18T05:46:31.655Z,53.35
2023-08-18T05:48:58.584Z,57.47
2023-08-18T05:51:25.662Z,50.90
2023-08-18T05:53:52.467Z,52.25
2023-08-18T05:56:20.771Z,55.55
2023-08-18T05:58:47.838Z,56.88
2023-08-18T06:01:16.349Z,53.67
2023-08-18T06:03:43.237Z,55.45
2023-08-18T06:06:10.309Z,55.30
2023-08-18T06:08:37.293Z,53.85
2023-08-18T06:11:04.410Z,53.15
2023-08-18T06:13:32.834Z,51.65
2023-08-18T06:16:04.063Z,53.45
2023-08-18T06:18:30.962Z,54.80
2023-08-18T06:20:57.847Z,52.60
2023-08-18T06:23:24.742Z,53.33
2023-08-18T06:25:51.592Z,52.80
2023-08-18T06:28:18.577Z,51.35
2023-08-18T06:30:46.847Z,55.10
2023-08-18T06:33:13.766Z,53.20
2023-08-18T06:35:40.704Z,54.33
2023-08-18T06:38:07.530Z,52.67
2023-08-18T06:40:34.356Z,56.08
2023-08-18T06:43:01.157Z,59.42
2023-08-18T06:45:28.042Z,58.55
2023-08-18T06:47:56.394Z,53.67
2023-08-18T06:50:23.250Z,56.95
2023-08-18T06:52:50.068Z,54.80
2023-08-18T06:55:17.968Z,57.35
2023-08-18T06:57:49.434Z,61.55
2023-08-18T07:00:18.601Z,61.83
2023-08-18T07:02:47.225Z,59.90
2023-08-18T07:05:15.495Z,53.50
2023-08-18T07:07:42.346Z,54.70
2023-08-18T07:10:10.544Z,54.38
2023-08-18T07:12:37.562Z,57.42
2023-08-18T07:15:05.135Z,55.35
2023-08-18T07:17:31.951Z,54.67
2023-08-18T07:19:58.839Z,57.40
2023-08-18T07:22:27.781Z,60.72
2023-08-18T07:24:55.038Z,61.28
2023-08-18T07:27:21.908Z,62.30
2023-08-18T07:29:49.748Z,59.78
2023-08-18T07:32:17.228Z,57.63
2023-08-18T07:34:44.154Z,57.42
2023-08-18T07:37:11.134Z,57.47
2023-08-18T07:39:39.599Z,58.15
2023-08-18T07:42:07.124Z,58.13
2023-08-18T07:44:34.319Z,59.53
2023-08-18T07:47:01.462Z,56.08
2023-08-18T07:49:29.053Z,58.80
2023-08-18T07:51:55.973Z,56.80
2023-08-18T07:54:24.562Z,56.83
2023-08-18T07:56:54.043Z,55.13
2023-08-18T07:59:21.286Z,55.20
2023-08-18T08:01:48.519Z,56.45
2023-08-18T08:04:15.518Z,53.53
2023-08-18T08:06:42.470Z,55.78
2023-08-18T08:09:09.299Z,55.10
2023-08-18T08:11:36.123Z,51.80
2023-08-18T08:14:04.663Z,52.00
2023-08-18T08:16:31.512Z,55.78
2023-08-18T08:18:58.338Z,50.55
2023-08-18T08:21:25.797Z,53.92
2023-08-18T08:23:52.627Z,55.92
2023-08-18T08:26:19.507Z,54.65
2023-08-18T08:28:46.382Z,52.15
2023-08-18T08:31:15.105Z,50.80
2023-08-18T08:33:41.961Z,53.58
2023-08-18T08:36:08.740Z,50.58
2023-08-18T08:38:35.957Z,53.38
2023-08-18T08:41:02.821Z,54.20
2023-08-18T08:43:30.066Z,50.45
2023-08-18T08:45:59.442Z,49.50
2023-08-18T08:48:33.141Z,46.08
2023-08-18T08:51:06.751Z,43.83
2023-08-18T08:53:38.455Z,41.90
2023-08-18T08:56:09.709Z,41.70
2023-08-18T08:58:37.471Z,42.28
2023-08-18T09:01:08.133Z,40.80
2023-08-18T09:03:37.022Z,39.10
2023-08-18T09:06:04.303Z,41.35
2023-08-18T09:08:31.316Z,39.50
2023-08-18T09:10:58.485Z,38.55
2023-08-18T09:13:25.659Z,39.60
2023-08-18T09:15:52.526Z,39.83
2023-08-18T09:18:20.436Z,37.88
2023-08-18T09:20:48.857Z,39.15
2023-08-18T09:23:20.335Z,38.80
2023-08-18T09:25:50.989Z,34.53
2023-08-18T09:28:19.355Z,38.22
2023-08-18T09:30:48.236Z,36.15
2023-08-18T09:33:17.574Z,36.47
2023-08-18T09:35:57.119Z,35.22
2023-08-18T09:38:28.441Z,39.67
2023-08-18T09:40:57.299Z,36.00
2023-08-18T09:43:24.895Z,34.33
2023-08-18T09:45:53.911Z,35.53
2023-08-18T09:48:24.161Z,34.53
2023-08-18T09:50:55.108Z,36.80
2023-08-18T09:53:25.455Z,35.25
2023-08-18T09:55:57.401Z,34.10
2023-08-18T09:58:33.216Z,39.88
2023-08-18T10:01:00.330Z,37.75
2023-08-18T10:03:28.089Z,39.08
2023-08-18T10:05:56.562Z,40.03
2023-08-18T10:08:24.114Z,40.65
2023-08-18T10:10:51.705Z,40.28
2023-08-18T10:13:19.606Z,41.75
2023-08-18T10:15:48.224Z,39.63
2023-08-18T10:18:15.647Z,45.10
2023-08-18T10:20:50.320Z,44.42
2023-08-18T10:23:19.814Z,42.45
2023-08-18T10:25:50.416Z,43.63
2023-08-18T10:28:20.794Z,46.30
2023-08-18T10:30:52.347Z,43.45
2023-08-18T10:33:31.009Z,43.42
2023-08-18T10:35:58.693Z,45.08
2023-08-18T10:38:30.560Z,42.42
2023-08-18T10:40:57.848Z,44.10
2023-08-18T10:43:27.840Z,46.42
2023-08-18T10:45:59.995Z,44.78
2023-08-18T10:48:31.396Z,43.95
2023-08-18T10:50:58.209Z,45.22
2023-08-18T10:53:25.095Z,42.70
2023-08-18T10:55:56.670Z,41.88
2023-08-18T10:58:23.537Z,44.72
2023-08-18T11:00:51.212Z,41.70
2023-08-18T11:03:18.401Z,45.00
2023-08-18T11:05:46.593Z,42.03
2023-08-18T11:08:13.584Z,42.20
2023-08-18T11:10:41.417Z,42.33
2023-08-18T11:13:12.060Z,42.15
2023-08-18T11:15:39.028Z,43.03
2023-08-18T11:18:06.537Z,41.15
2023-08-18T11:20:33.524Z,41.97
2023-08-18T11:23:00.967Z,40.15
2023-08-18T11:25:28.081Z,39.33
2023-08-18T11:27:55.051Z,38.00
2023-08-18T11:30:23.554Z,36.50
2023-08-18T11:32:51.160Z,36.95
2023-08-18T11:35:20.305Z,35.85
2023-08-18T11:37:50.071Z,35.08
2023-08-18T11:40:19.177Z,35.42
2023-08-18T11:42:47.529Z,36.38
2023-08-18T11:45:16.885Z,35.63
2023-08-18T11:47:46.130Z,34.72
2023-08-18T11:50:20.849Z,31.13
2023-08-18T11:52:51.347Z,33.58
2023-08-18T11:55:30.226Z,37.45
2023-08-18T11:57:57.175Z,32.42
2023-08-18T12:00:32.202Z,34.33
2023-08-18T12:03:00.545Z,33.92
2023-08-18T12:05:28.174Z,34.45
2023-08-18T12:07:55.298Z,34.05
2023-08-18T12:10:23.287Z,32.22
2023-08-18T12:12:53.321Z,37.55
2023-08-18T12:15:21.655Z,32.70
2023-08-18T12:17:48.556Z,35.90
2023-08-18T12:20:20.317Z,34.72
2023-08-18T12:22:47.847Z,33.47
2023-08-18T12:25:14.821Z,34.50
2023-08-18T12:27:42.662Z,33.38
2023-08-18T12:30:10.381Z,31.35
2023-08-18T12:32:37.263Z,33.63
2023-08-18T12:35:05.414Z,33.70
2023-08-18T12:37:34.861Z,33.15
2023-08-18T12:40:01.680Z,33.47
2023-08-18T12:42:29.329Z,33.92
2023-08-18T12:44:56.299Z,32.63
2023-08-18T12:47:23.179Z,34.55
2023-08-18T12:49:50.106Z,36.30
2023-08-18T12:52:17.078Z,36.00
2023-08-18T12:54:46.552Z,35.53
2023-08-18T12:57:13.380Z,37.22
2023-08-18T12:59:40.262Z,34.05
2023-08-18T13:02:07.199Z,37.90
2023-08-18T13:04:34.223Z,34.45
2023-08-18T13:07:01.321Z,34.95
2023-08-18T13:09:28.361Z,33.00
2023-08-18T13:11:56.916Z,32.95
2023-08-18T13:14:26.746Z,33.75
2023-08-18T13:16:58.859Z,35.10
2023-08-18T13:19:26.838Z,33.85
2023-08-18T13:21:58.300Z,32.70
2023-08-18T13:24:26.912Z,31.13
2023-08-18T13:26:57.032Z,32.15
2023-08-18T13:29:26.079Z,31.42
2023-08-18T13:31:56.246Z,31.17
2023-08-18T13:34:23.327Z,30.58
2023-08-18T13:36:50.263Z,29.52
2023-08-18T13:39:20.275Z,29.30
2023-08-18T13:41:47.647Z,30.73
2023-08-18T13:44:14.538Z,28.95
2023-08-18T13:46:42.866Z,31.27
2023-08-18T13:49:12.188Z,29.95
2023-08-18T13:51:40.824Z,32.28
2023-08-18T13:54:12.654Z,30.65
2023-08-18T13:56:40.943Z,29.80
2023-08-18T13:59:07.825Z,33.03
2023-08-18T14:01:35.647Z,33.20
2023-08-18T14:04:04.614Z,29.27
2023-08-18T14:06:31.452Z,33.53
2023-08-18T14:08:58.543Z,32.92
2023-08-18T14:11:26.527Z,33.45
2023-08-18T14:13:53.376Z,30.42
2023-08-18T14:16:20.347Z,30.80
2023-08-18T14:18:47.209Z,30.50
2023-08-18T14:21:15.564Z,29.95
2023-08-18T14:23:42.348Z,31.08
2023-08-18T14:26:09.303Z,32.05
2023-08-18T14:28:36.316Z,27.27
2023-08-18T14:31:05.197Z,29.75
2023-08-18T14:33:45.636Z,30.02
2023-08-18T14:36:12.902Z,27.13
2023-08-18T14:38:41.096Z,28.48
2023-08-18T14:41:08.037Z,30.17
2023-08-18T14:43:36.505Z,27.75
2023-08-18T14:46:05.508Z,28.25
2023-08-18T14:48:32.417Z,28.17
2023-08-18T14:50:59.246Z,29.13
2023-08-18T14:53:26.153Z,28.55
2023-08-18T14:55:54.856Z,30.92
2023-08-18T14:58:26.743Z,30.10
2023-08-18T15:00:53.789Z,30.55
2023-08-18T15:03:20.729Z,31.95
2023-08-18T15:05:47.672Z,28.40
2023-08-18T15:08:14.839Z,27.85
2023-08-18T15:10:41.892Z,30.13
2023-08-18T15:13:10.223Z,25.73
2023-08-18T15:15:37.157Z,23.85
2023-08-18T15:18:04.917Z,27.23
2023-08-18T15:20:32.431Z,24.60
2023-08-18T15:22:59.870Z,26.23
2023-08-18T15:25:27.225Z,25.60
2023-08-18T15:27:54.192Z,24.42
2023-08-18T15:30:22.686Z,24.50
2023-08-18T15:32:50.176Z,24.90
2023-08-18T15:35:17.184Z,24.40
2023-08-18T15:37:44.026Z,22.85
2023-08-18T15:40:11.547Z,25.02
2023-08-18T15:42:38.536Z,28.05
2023-08-18T15:45:06.351Z,23.60
2023-08-18T15:47:35.990Z,23.45
2023-08-18T15:50:04.435Z,23.20
2023-08-18T15:52:31.310Z,23.15
2023-08-18T15:54:58.159Z,25.55
2023-08-18T15:57:25.170Z,27.92
2023-08-18T15:59:52.079Z,28.20
2023-08-18T16:02:18.996Z,27.42
2023-08-18T16:04:48.791Z,26.88
2023-08-18T16:07:15.795Z,28.42
2023-08-18T16:09:42.680Z,27.60
2023-08-18T16:12:10.026Z,25.42
2023-08-18T16:17:06.959Z,25.80
2023-08-18T16:19:34.005Z,26.63
2023-08-18T16:22:02.181Z,26.80
2023-08-18T16:24:28.990Z,27.25
2023-08-18T16:26:59.068Z,24.90
2023-08-18T16:29:26.383Z,26.90
2023-08-18T16:31:53.296Z,25.00
2023-08-18T16:34:22.683Z,27.25
2023-08-18T16:36:50.226Z,27.23
2023-08-18T16:39:18.639Z,26.33
2023-08-18T16:41:45.894Z,27.80
2023-08-18T16:44:12.969Z,28.00
2023-08-18T16:46:40.980Z,26.30
2023-08-18T16:49:08.335Z,27.17
2023-08-18T16:51:36.093Z,27.55
2023-08-18T16:54:03.128Z,26.25
2023-08-18T16:56:31.861Z,23.00
2023-08-18T16:58:58.707Z,24.23
2023-08-18T17:01:25.555Z,22.33
2023-08-18T17:03:52.876Z,24.40
2023-08-18T17:06:19.797Z,21.20
2023-08-18T17:08:46.783Z,21.98
2023-08-18T17:11:13.656Z,23.45
2023-08-18T17:13:41.986Z,23.73
2023-08-18T17:16:08.848Z,22.60
2023-08-18T17:18:35.765Z,22.60
2023-08-18T17:21:02.769Z,23.98
2023-08-18T17:23:29.750Z,22.75
2023-08-18T17:25:56.668Z,21.10
2023-08-18T17:28:23.629Z,23.02
2023-08-18T17:30:52.001Z,21.05
2023-08-18T17:33:19.070Z,21.63
2023-08-18T17:35:46.112Z,24.88
2023-08-18T17:38:14.054Z,22.50
2023-08-18T17:40:43.205Z,24.20
2023-08-18T17:43:10.201Z,22.42
2023-08-18T17:45:41.532Z,23.38
2023-08-18T17:48:10.360Z,23.08
2023-08-18T17:50:40.073Z,23.60
2023-08-18T17:53:07.624Z,23.88
2023-08-18T17:55:34.782Z,20.17
2023-08-18T17:58:01.804Z,22.25
2023-08-18T18:00:29.869Z,23.55
2023-08-18T18:02:57.148Z,21.85
2023-08-18T18:05:25.784Z,23.85
2023-08-18T18:07:52.871Z,23.27
2023-08-18T18:10:21.514Z,23.55
2023-08-18T18:12:49.176Z,21.60
2023-08-18T18:15:16.493Z,23.27
2023-08-18T18:17:43.529Z,20.73
2023-08-18T18:20:13.143Z,22.08
2023-08-18T18:22:41.671Z,21.58
2023-08-18T18:25:09.339Z,21.85
2023-08-18T18:27:36.691Z,22.00
2023-08-18T18:30:04.147Z,23.17
2023-08-18T18:32:31.273Z,21.48
2023-08-18T18:34:58.373Z,24.48
2023-08-18T18:37:25.328Z,28.27
2023-08-18T18:39:53.769Z,24.63
2023-08-18T18:42:20.757Z,24.75
2023-08-18T18:44:47.722Z,25.35
2023-08-18T18:47:16.373Z,25.13
2023-08-18T18:49:43.637Z,24.58
2023-08-18T18:52:10.662Z,24.73
2023-08-18T18:54:37.545Z,27.88
2023-08-18T18:57:06.143Z,25.17
2023-08-18T18:59:33.213Z,29.98
2023-08-18T19:02:00.058Z,28.23
2023-08-18T19:04:27.090Z,29.80
2023-08-18T19:06:53.916Z,26.45
2023-08-18T19:09:20.824Z,28.13
2023-08-18T19:11:49.281Z,29.23
2023-08-18T19:14:17.734Z,30.83
2023-08-18T19:16:44.588Z,26.35
2023-08-18T19:19:11.662Z,25.95
2023-08-18T19:21:44.401Z,27.65
2023-08-18T19:24:11.318Z,28.33
2023-08-18T19:26:38.314Z,26.48
2023-08-18T19:29:05.389Z,29.42
2023-08-18T19:31:34.027Z,28.73
2023-08-18T19:34:01.005Z,30.55
2023-08-18T19:36:27.857Z,30.60
2023-08-18T19:38:57.469Z,30.95
2023-08-18T19:41:24.465Z,31.23
2023-08-18T19:43:51.342Z,31.65
2023-08-18T19:46:18.298Z,31.17
2023-08-18T19:48:46.552Z,33.40
2023-08-18T19:51:13.488Z,31.40
2023-08-18T19:53:40.331Z,34.80
2023-08-18T19:56:07.136Z,32.85
2023-08-18T19:58:34.047Z,35.97
2023-08-18T20:01:04.262Z,32.40
2023-08-18T20:03:33.709Z,34.20
2023-08-18T20:06:05.201Z,35.05
2023-08-18T20:08:32.314Z,34.55
2023-08-18T20:10:59.254Z,35.92
2023-08-18T20:13:26.327Z,34.03
2023-08-18T20:15:54.999Z,35.40
2023-08-18T20:18:21.871Z,35.60
2023-08-18T20:20:48.761Z,31.77
2023-08-18T20:23:17.056Z,35.17
2023-08-18T20:25:44.003Z,34.60
2023-08-18T20:28:10.987Z,34.95
2023-08-18T20:30:43.456Z,35.80
2023-08-18T20:33:11.548Z,34.15
2023-08-18T20:35:38.547Z,32.80
2023-08-18T20:38:05.470Z,34.20
2023-08-18T20:40:34.399Z,33.50
2023-08-18T20:43:01.241Z,32.58
2023-08-18T20:45:28.077Z,33.83
2023-08-18T20:47:54.984Z,35.17
2023-08-18T20:50:21.908Z,34.47
2023-08-18T20:52:48.742Z,35.47
2023-08-18T20:55:15.826Z,35.25
2023-08-18T20:57:44.045Z,35.70
2023-08-18T21:00:11.808Z,34.25
2023-08-18T21:02:38.844Z,33.22
2023-08-18T21:05:06.454Z,32.67
2023-08-18T21:07:34.296Z,35.08
2023-08-18T21:10:01.751Z,35.22
2023-08-18T21:12:28.762Z,35.60
2023-08-18T21:14:57.150Z,35.53
2023-08-18T21:17:26.594Z,33.40
2023-08-18T21:19:53.825Z,33.72
2023-08-18T21:22:20.714Z,35.35
2023-08-18T21:24:48.202Z,35.08
2023-08-18T21:27:15.076Z,34.05
2023-08-18T21:29:41.952Z,34.30
2023-08-18T21:32:10.210Z,32.15
2023-08-18T21:34:37.171Z,34.35
2023-08-18T21:37:05.443Z,34.15
2023-08-18T21:39:33.960Z,34.75
2023-08-18T21:42:00.919Z,34.72
2023-08-18T21:44:27.753Z,32.85
2023-08-18T21:46:54.575Z,34.30
2023-08-18T21:49:22.953Z,34.20
2023-08-18T21:51:49.790Z,32.45
2023-08-18T21:54:16.745Z,36.40
2023-08-18T21:56:46.670Z,34.10
2023-08-18T21:59:13.524Z,31.90
2023-08-18T22:01:40.539Z,34.25
2023-08-18T22:04:07.342Z,32.60
2023-08-18T22:06:35.654Z,34.50
2023-08-18T22:09:02.926Z,32.83
2023-08-18T22:11:29.836Z,34.17
2023-08-18T22:13:56.634Z,34.55
2023-08-18T22:16:23.618Z,32.75
2023-08-18T22:18:50.482Z,35.25
2023-08-18T22:21:17.290Z,35.08
2023-08-18T22:23:45.493Z,33.60
2023-08-18T22:26:12.425Z,35.42
2023-08-18T22:28:39.281Z,33.17
2023-08-18T22:31:06.150Z,36.75
2023-08-18T22:33:33.076Z,34.05
2023-08-18T22:36:00.117Z,31.45
2023-08-18T22:38:27.137Z,34.30
2023-08-18T22:40:59.959Z,33.75
2023-08-18T22:43:27.159Z,34.28
2023-08-18T22:45:54.897Z,33.40
2023-08-18T22:48:22.481Z,32.80
2023-08-18T22:50:49.581Z,31.60
2023-08-18T22:53:16.718Z,32.97
2023-08-18T22:55:44.059Z,32.78
2023-08-18T22:58:12.275Z,34.00
2023-08-18T23:00:39.253Z,34.95
2023-08-18T23:03:06.255Z,33.13
2023-08-18T23:05:33.299Z,35.90
2023-08-18T23:08:00.239Z,31.00
2023-08-18T23:10:27.164Z,34.95
2023-08-18T23:12:53.984Z,36.30
2023-08-18T23:15:22.357Z,34.40
2023-08-18T23:17:49.215Z,34.00
2023-08-18T23:20:16.145Z,34.42
2023-08-18T23:22:43.011Z,33.72
2023-08-18T23:25:10.507Z,33.45
2023-08-18T23:27:37.665Z,33.10
2023-08-18T23:30:05.516Z,34.00
2023-08-18T23:32:33.820Z,31.80
2023-08-18T23:35:01.282Z,32.40
2023-08-18T23:37:28.128Z,31.17
2023-08-18T23:39:54.995Z,32.45
2023-08-18T23:42:21.788Z,33.35
2023-08-18T23:44:48.636Z,34.00
2023-08-18T23:47:15.678Z,35.13
2023-08-18T23:49:43.834Z,31.58
2023-08-18T23:52:10.729Z,33.47
2023-08-18T23:54:37.578Z,32.85
2023-08-18T23:57:05.882Z,34.33
2023-08-18T23:59:32.762Z,32.70
